sensor_id;sensor_type;location;lat;lon;timestamp;P1;durP1;ratioP1;P2;durP2;ratioP2
43042;SDS011;28667;50.758;6.096;2022-08-02T00:01:31;2.30;;;1.30;;
43042;SDS011;28667;50.758;6.096;2022-08-02T00:03:57;1.58;;;1.48;;
43042;SDS011;28667;50.758;6.096;2022-08-02T00:06:23;1.80;;;1.52;;
43042;SDS011;28667;50.758;6.096;2022-08-02T00:08:50;3.20;;;1.48;;
43042;SDS011;28667;50.758;6.096;2022-08-02T00:11:18;2.42;;;1.42;;
43042;SDS011;28667;50.758;6.096;2022-08-02T00:13:44;1.50;;;1.40;;
43042;SDS011;28667;50.758;6.096;2022-08-02T00:16:11;1.77;;;1.40;;
43042;SDS011;28667;50.758;6.096;2022-08-02T00:18:37;1.40;;;1.30;;
43042;SDS011;28667;50.758;6.096;2022-08-02T00:21:04;1.42;;;1.30;;
43042;SDS011;28667;50.758;6.096;2022-08-02T00:23:30;2.15;;;1.08;;
43042;SDS011;28667;50.758;6.096;2022-08-02T00:25:56;1.20;;;1.10;;
43042;SDS011;28667;50.758;6.096;2022-08-02T00:28:23;2.67;;;1.60;;
43042;SDS011;28667;50.758;6.096;2022-08-02T00:30:50;2.00;;;1.40;;
43042;SDS011;28667;50.758;6.096;2022-08-02T00:33:16;1.70;;;1.33;;
43042;SDS011;28667;50.758;6.096;2022-08-02T00:35:43;3.53;;;1.42;;
43042;SDS011;28667;50.758;6.096;2022-08-02T00:38:13;1.88;;;1.30;;
43042;SDS011;28667;50.758;6.096;2022-08-02T00:40:39;1.95;;;1.35;;
43042;SDS011;28667;50.758;6.096;2022-08-02T00:43:07;2.20;;;1.67;;
43042;SDS011;28667;50.758;6.096;2022-08-02T00:45:38;1.23;;;1.13;;
43042;SDS011;28667;50.758;6.096;2022-08-02T00:48:07;1.27;;;1.17;;
43042;SDS011;28667;50.758;6.096;2022-08-02T00:50:35;2.80;;;1.30;;
43042;SDS011;28667;50.758;6.096;2022-08-02T00:53:02;1.40;;;1.30;;
43042;SDS011;28667;50.758;6.096;2022-08-02T00:55:29;2.15;;;1.38;;
43042;SDS011;28667;50.758;6.096;2022-08-02T00:57:56;2.20;;;1.52;;
43042;SDS011;28667;50.758;6.096;2022-08-02T01:00:23;1.75;;;1.20;;
43042;SDS011;28667;50.758;6.096;2022-08-02T01:02:50;1.38;;;1.27;;
43042;SDS011;28667;50.758;6.096;2022-08-02T01:05:16;3.70;;;1.10;;
43042;SDS011;28667;50.758;6.096;2022-08-02T01:07:43;1.77;;;1.60;;
43042;SDS011;28667;50.758;6.096;2022-08-02T01:10:10;1.40;;;1.30;;
43042;SDS011;28667;50.758;6.096;2022-08-02T01:12:36;3.70;;;1.40;;
43042;SDS011;28667;50.758;6.096;2022-08-02T01:15:05;1.50;;;1.40;;
43042;SDS011;28667;50.758;6.096;2022-08-02T01:23:17;1.35;;;1.25;;
43042;SDS011;28667;50.758;6.096;2022-08-02T01:26:08;1.23;;;1.13;;
43042;SDS011;28667;50.758;6.096;2022-08-02T01:33:50;1.55;;;1.20;;
43042;SDS011;28667;50.758;6.096;2022-08-02T01:36:37;2.58;;;1.58;;
43042;SDS011;28667;50.758;6.096;2022-08-02T01:39:06;1.63;;;1.27;;
43042;SDS011;28667;50.758;6.096;2022-08-02T01:41:36;1.40;;;1.30;;
43042;SDS011;28667;50.758;6.096;2022-08-02T01:44:04;1.95;;;1.33;;
43042;SDS011;28667;50.758;6.096;2022-08-02T01:46:31;3.10;;;1.10;;
43042;SDS011;28667;50.758;6.096;2022-08-02T01:49:02;1.95;;;1.58;;
43042;SDS011;28667;50.758;6.096;2022-08-02T01:51:30;3.22;;;1.23;;
43042;SDS011;28667;50.758;6.096;2022-08-02T01:54:17;2.97;;;1.35;;
43042;SDS011;28667;50.758;6.096;2022-08-02T01:56:46;1.60;;;1.50;;
43042;SDS011;28667;50.758;6.096;2022-08-02T01:59:15;1.27;;;1.17;;
43042;SDS011;28667;50.758;6.096;2022-08-02T02:01:45;1.00;;;1.00;;
43042;SDS011;28667;50.758;6.096;2022-08-02T02:04:14;4.70;;;1.23;;
43042;SDS011;28667;50.758;6.096;2022-08-02T02:06:41;1.50;;;1.40;;
43042;SDS011;28667;50.758;6.096;2022-08-02T02:09:10;1.88;;;1.67;;
43042;SDS011;28667;50.758;6.096;2022-08-02T02:11:39;1.48;;;0.95;;
43042;SDS011;28667;50.758;6.096;2022-08-02T02:14:08;2.42;;;1.40;;
43042;SDS011;28667;50.758;6.096;2022-08-02T02:16:35;2.80;;;1.10;;
43042;SDS011;28667;50.758;6.096;2022-08-02T02:19:02;1.25;;;1.15;;
43042;SDS011;28667;50.758;6.096;2022-08-02T02:21:29;1.13;;;1.10;;
43042;SDS011;28667;50.758;6.096;2022-08-02T02:23:55;1.35;;;1.27;;
43042;SDS011;28667;50.758;6.096;2022-08-02T02:26:23;1.60;;;1.50;;
43042;SDS011;28667;50.758;6.096;2022-08-02T02:28:50;2.08;;;1.50;;
43042;SDS011;28667;50.758;6.096;2022-08-02T02:31:18;1.38;;;1.27;;
43042;SDS011;28667;50.758;6.096;2022-08-02T02:33:49;1.50;;;1.40;;
43042;SDS011;28667;50.758;6.096;2022-08-02T02:38:47;1.13;;;1.02;;
43042;SDS011;28667;50.758;6.096;2022-08-02T02:41:15;1.65;;;1.40;;
43042;SDS011;28667;50.758;6.096;2022-08-02T02:43:43;1.45;;;1.35;;
43042;SDS011;28667;50.758;6.096;2022-08-02T02:46:11;1.52;;;1.33;;
43042;SDS011;28667;50.758;6.096;2022-08-02T02:48:38;1.63;;;1.50;;
43042;SDS011;28667;50.758;6.096;2022-08-02T02:51:05;1.27;;;1.17;;
43042;SDS011;28667;50.758;6.096;2022-08-02T02:53:34;1.75;;;1.17;;
43042;SDS011;28667;50.758;6.096;2022-08-02T02:56:01;1.55;;;1.42;;
43042;SDS011;28667;50.758;6.096;2022-08-02T02:58:27;2.65;;;1.40;;
43042;SDS011;28667;50.758;6.096;2022-08-02T03:00:55;1.58;;;1.25;;
43042;SDS011;28667;50.758;6.096;2022-08-02T03:03:39;1.30;;;1.20;;
43042;SDS011;28667;50.758;6.096;2022-08-02T03:06:08;1.88;;;1.50;;
43042;SDS011;28667;50.758;6.096;2022-08-02T03:08:35;1.80;;;1.23;;
43042;SDS011;28667;50.758;6.096;2022-08-02T03:11:01;1.48;;;1.38;;
43042;SDS011;28667;50.758;6.096;2022-08-02T03:13:27;1.70;;;1.27;;
43042;SDS011;28667;50.758;6.096;2022-08-02T03:15:54;1.60;;;1.30;;
43042;SDS011;28667;50.758;6.096;2022-08-02T03:18:31;1.15;;;1.05;;
43042;SDS011;28667;50.758;6.096;2022-08-02T03:20:59;2.58;;;1.65;;
43042;SDS011;28667;50.758;6.096;2022-08-02T03:23:39;1.90;;;1.70;;
43042;SDS011;28667;50.758;6.096;2022-08-02T03:26:07;1.77;;;1.52;;
43042;SDS011;28667;50.758;6.096;2022-08-02T03:28:34;1.50;;;1.40;;
43042;SDS011;28667;50.758;6.096;2022-08-02T03:31:00;2.67;;;1.60;;
43042;SDS011;28667;50.758;6.096;2022-08-02T03:33:26;3.20;;;1.38;;
43042;SDS011;28667;50.758;6.096;2022-08-02T03:35:54;1.73;;;1.10;;
43042;SDS011;28667;50.758;6.096;2022-08-02T03:38:22;1.48;;;1.38;;
43042;SDS011;28667;50.758;6.096;2022-08-02T03:40:51;1.83;;;1.40;;
43042;SDS011;28667;50.758;6.096;2022-08-02T03:43:18;3.00;;;1.52;;
43042;SDS011;28667;50.758;6.096;2022-08-02T03:45:46;1.30;;;1.23;;
43042;SDS011;28667;50.758;6.096;2022-08-02T03:48:14;2.15;;;1.70;;
43042;SDS011;28667;50.758;6.096;2022-08-02T03:50:41;1.60;;;1.00;;
43042;SDS011;28667;50.758;6.096;2022-08-02T03:53:09;1.27;;;1.17;;
43042;SDS011;28667;50.758;6.096;2022-08-02T03:55:35;1.30;;;1.20;;
43042;SDS011;28667;50.758;6.096;2022-08-02T03:58:01;1.65;;;1.20;;
43042;SDS011;28667;50.758;6.096;2022-08-02T04:00:27;1.98;;;1.55;;
43042;SDS011;28667;50.758;6.096;2022-08-02T04:02:54;1.67;;;1.20;;
43042;SDS011;28667;50.758;6.096;2022-08-02T04:05:20;1.45;;;1.35;;
43042;SDS011;28667;50.758;6.096;2022-08-02T04:07:51;1.40;;;1.30;;
43042;SDS011;28667;50.758;6.096;2022-08-02T04:10:17;1.25;;;1.15;;
43042;SDS011;28667;50.758;6.096;2022-08-02T04:12:43;2.00;;;1.70;;
43042;SDS011;28667;50.758;6.096;2022-08-02T04:15:11;1.55;;;1.45;;
43042;SDS011;28667;50.758;6.096;2022-08-02T04:17:41;2.75;;;1.45;;
43042;SDS011;28667;50.758;6.096;2022-08-02T04:20:19;1.33;;;1.23;;
43042;SDS011;28667;50.758;6.096;2022-08-02T04:25:48;1.55;;;1.38;;
43042;SDS011;28667;50.758;6.096;2022-08-02T04:28:15;2.28;;;1.83;;
43042;SDS011;28667;50.758;6.096;2022-08-02T04:30:41;2.72;;;1.27;;
43042;SDS011;28667;50.758;6.096;2022-08-02T04:33:09;1.63;;;1.52;;
43042;SDS011;28667;50.758;6.096;2022-08-02T04:35:35;2.25;;;1.27;;
43042;SDS011;28667;50.758;6.096;2022-08-02T04:38:01;1.85;;;1.60;;
43042;SDS011;28667;50.758;6.096;2022-08-02T04:40:28;2.70;;;1.50;;
43042;SDS011;28667;50.758;6.096;2022-08-02T04:42:54;2.53;;;1.50;;
43042;SDS011;28667;50.758;6.096;2022-08-02T04:45:20;1.40;;;1.30;;
43042;SDS011;28667;50.758;6.096;2022-08-02T04:47:47;1.50;;;1.38;;
43042;SDS011;28667;50.758;6.096;2022-08-02T04:50:13;1.42;;;1.33;;
43042;SDS011;28667;50.758;6.096;2022-08-02T04:52:40;1.67;;;1.38;;
43042;SDS011;28667;50.758;6.096;2022-08-02T04:55:06;1.55;;;1.45;;
43042;SDS011;28667;50.758;6.096;2022-08-02T04:57:32;1.25;;;1.15;;
43042;SDS011;28667;50.758;6.096;2022-08-02T05:00:18;1.42;;;1.20;;
43042;SDS011;28667;50.758;6.096;2022-08-02T05:02:44;2.15;;;1.20;;
43042;SDS011;28667;50.758;6.096;2022-08-02T05:05:10;3.47;;;1.55;;
43042;SDS011;28667;50.758;6.096;2022-08-02T05:07:36;1.40;;;1.30;;
43042;SDS011;28667;50.758;6.096;2022-08-02T05:10:03;3.40;;;1.20;;
43042;SDS011;28667;50.758;6.096;2022-08-02T05:12:30;2.10;;;1.05;;
43042;SDS011;28667;50.758;6.096;2022-08-02T05:14:56;1.30;;;1.20;;
43042;SDS011;28667;50.758;6.096;2022-08-02T05:17:22;2.28;;;1.48;;
43042;SDS011;28667;50.758;6.096;2022-08-02T05:19:48;1.73;;;1.40;;
43042;SDS011;28667;50.758;6.096;2022-08-02T05:22:14;1.67;;;1.50;;
43042;SDS011;28667;50.758;6.096;2022-08-02T05:24:40;1.75;;;1.55;;
43042;SDS011;28667;50.758;6.096;2022-08-02T05:27:07;1.70;;;1.60;;
43042;SDS011;28667;50.758;6.096;2022-08-02T05:29:32;1.10;;;1.02;;
43042;SDS011;28667;50.758;6.096;2022-08-02T05:31:58;1.50;;;1.40;;
43042;SDS011;28667;50.758;6.096;2022-08-02T05:34:25;1.70;;;1.60;;
43042;SDS011;28667;50.758;6.096;2022-08-02T05:36:51;1.90;;;1.70;;
43042;SDS011;28667;50.758;6.096;2022-08-02T05:39:17;2.15;;;1.73;;
43042;SDS011;28667;50.758;6.096;2022-08-02T05:41:43;2.83;;;1.90;;
43042;SDS011;28667;50.758;6.096;2022-08-02T05:44:09;1.42;;;1.33;;
43042;SDS011;28667;50.758;6.096;2022-08-02T05:46:35;1.60;;;1.50;;
43042;SDS011;28667;50.758;6.096;2022-08-02T05:49:02;1.70;;;1.60;;
43042;SDS011;28667;50.758;6.096;2022-08-02T05:56:37;1.83;;;1.70;;
43042;SDS011;28667;50.758;6.096;2022-08-02T06:01:57;2.17;;;1.98;;
43042;SDS011;28667;50.758;6.096;2022-08-02T06:04:50;2.35;;;1.88;;
43042;SDS011;28667;50.758;6.096;2022-08-02T06:07:39;2.20;;;1.42;;
43042;SDS011;28667;50.758;6.096;2022-08-02T06:10:07;2.42;;;2.10;;
43042;SDS011;28667;50.758;6.096;2022-08-02T06:12:36;2.53;;;1.58;;
43042;SDS011;28667;50.758;6.096;2022-08-02T06:15:25;1.70;;;1.60;;
43042;SDS011;28667;50.758;6.096;2022-08-02T06:17:52;2.80;;;1.80;;
43042;SDS011;28667;50.758;6.096;2022-08-02T06:20:19;1.80;;;1.65;;
43042;SDS011;28667;50.758;6.096;2022-08-02T06:22:45;2.70;;;1.63;;
43042;SDS011;28667;50.758;6.096;2022-08-02T06:25:12;2.10;;;1.90;;
43042;SDS011;28667;50.758;6.096;2022-08-02T06:27:39;1.77;;;1.67;;
43042;SDS011;28667;50.758;6.096;2022-08-02T06:30:07;4.20;;;2.22;;
43042;SDS011;28667;50.758;6.096;2022-08-02T06:32:34;2.08;;;1.88;;
43042;SDS011;28667;50.758;6.096;2022-08-02T06:35:01;2.20;;;2.00;;
43042;SDS011;28667;50.758;6.096;2022-08-02T06:46:18;1.80;;;1.70;;
43042;SDS011;28667;50.758;6.096;2022-08-02T06:48:44;1.55;;;1.45;;
43042;SDS011;28667;50.758;6.096;2022-08-02T06:51:11;2.92;;;1.50;;
43042;SDS011;28667;50.758;6.096;2022-08-02T06:53:37;1.75;;;1.65;;
43042;SDS011;28667;50.758;6.096;2022-08-02T06:56:04;4.22;;;1.48;;
43042;SDS011;28667;50.758;6.096;2022-08-02T06:58:30;2.38;;;1.33;;
43042;SDS011;28667;50.758;6.096;2022-08-02T07:00:56;1.73;;;1.55;;
43042;SDS011;28667;50.758;6.096;2022-08-02T07:03:22;2.20;;;1.70;;
43042;SDS011;28667;50.758;6.096;2022-08-02T07:05:50;2.15;;;1.92;;
43042;SDS011;28667;50.758;6.096;2022-08-02T07:08:17;1.45;;;1.35;;
43042;SDS011;28667;50.758;6.096;2022-08-02T07:10:44;1.55;;;1.45;;
43042;SDS011;28667;50.758;6.096;2022-08-02T07:13:10;2.20;;;1.88;;
43042;SDS011;28667;50.758;6.096;2022-08-02T07:15:37;1.83;;;1.73;;
43042;SDS011;28667;50.758;6.096;2022-08-02T07:18:03;2.35;;;1.88;;
43042;SDS011;28667;50.758;6.096;2022-08-02T07:20:30;1.55;;;1.45;;
43042;SDS011;28667;50.758;6.096;2022-08-02T07:22:56;2.22;;;1.48;;
43042;SDS011;28667;50.758;6.096;2022-08-02T07:25:22;1.67;;;1.58;;
43042;SDS011;28667;50.758;6.096;2022-08-02T07:27:49;1.63;;;1.40;;
43042;SDS011;28667;50.758;6.096;2022-08-02T07:30:15;1.50;;;1.40;;
43042;SDS011;28667;50.758;6.096;2022-08-02T07:32:41;6.88;;;2.50;;
43042;SDS011;28667;50.758;6.096;2022-08-02T07:35:07;2.13;;;1.42;;
43042;SDS011;28667;50.758;6.096;2022-08-02T07:37:34;2.05;;;1.70;;
43042;SDS011;28667;50.758;6.096;2022-08-02T07:40:03;2.47;;;1.48;;
43042;SDS011;28667;50.758;6.096;2022-08-02T07:42:31;1.50;;;1.40;;
43042;SDS011;28667;50.758;6.096;2022-08-02T07:44:57;1.60;;;1.38;;
43042;SDS011;28667;50.758;6.096;2022-08-02T07:47:23;2.50;;;1.35;;
43042;SDS011;28667;50.758;6.096;2022-08-02T07:49:49;3.78;;;1.15;;
43042;SDS011;28667;50.758;6.096;2022-08-02T07:52:15;1.75;;;1.48;;
43042;SDS011;28667;50.758;6.096;2022-08-02T07:54:41;1.77;;;1.67;;
43042;SDS011;28667;50.758;6.096;2022-08-02T07:57:07;3.47;;;1.33;;
43042;SDS011;28667;50.758;6.096;2022-08-02T07:59:33;1.83;;;1.02;;
43042;SDS011;28667;50.758;6.096;2022-08-02T08:01:59;2.75;;;1.40;;
43042;SDS011;28667;50.758;6.096;2022-08-02T08:04:25;1.33;;;1.05;;
43042;SDS011;28667;50.758;6.096;2022-08-02T08:06:51;1.98;;;1.30;;
43042;SDS011;28667;50.758;6.096;2022-08-02T08:09:18;3.25;;;1.40;;
43042;SDS011;28667;50.758;6.096;2022-08-02T08:11:44;1.27;;;1.17;;
43042;SDS011;28667;50.758;6.096;2022-08-02T08:14:11;1.75;;;1.50;;
43042;SDS011;28667;50.758;6.096;2022-08-02T08:16:37;1.85;;;1.65;;
43042;SDS011;28667;50.758;6.096;2022-08-02T08:19:03;1.30;;;1.23;;
43042;SDS011;28667;50.758;6.096;2022-08-02T08:21:29;2.20;;;1.40;;
43042;SDS011;28667;50.758;6.096;2022-08-02T08:23:55;1.60;;;1.42;;
43042;SDS011;28667;50.758;6.096;2022-08-02T08:26:22;1.30;;;1.20;;
43042;SDS011;28667;50.758;6.096;2022-08-02T08:28:48;1.85;;;1.60;;
43042;SDS011;28667;50.758;6.096;2022-08-02T08:31:14;1.40;;;1.30;;
43042;SDS011;28667;50.758;6.096;2022-08-02T08:33:40;2.35;;;1.30;;
43042;SDS011;28667;50.758;6.096;2022-08-02T08:36:06;1.20;;;1.10;;
43042;SDS011;28667;50.758;6.096;2022-08-02T08:38:33;1.20;;;1.10;;
43042;SDS011;28667;50.758;6.096;2022-08-02T08:40:59;1.20;;;1.10;;
43042;SDS011;28667;50.758;6.096;2022-08-02T08:43:26;1.35;;;1.25;;
43042;SDS011;28667;50.758;6.096;2022-08-02T08:45:52;1.30;;;1.20;;
43042;SDS011;28667;50.758;6.096;2022-08-02T08:48:18;1.50;;;1.40;;
43042;SDS011;28667;50.758;6.096;2022-08-02T08:50:49;1.20;;;1.08;;
43042;SDS011;28667;50.758;6.096;2022-08-02T08:53:20;1.60;;;1.50;;
43042;SDS011;28667;50.758;6.096;2022-08-02T08:55:50;2.00;;;1.13;;
43042;SDS011;28667;50.758;6.096;2022-08-02T08:58:18;1.52;;;1.13;;
43042;SDS011;28667;50.758;6.096;2022-08-02T09:00:45;3.70;;;1.25;;
43042;SDS011;28667;50.758;6.096;2022-08-02T09:03:12;1.00;;;1.00;;
43042;SDS011;28667;50.758;6.096;2022-08-02T09:05:38;1.40;;;1.30;;
43042;SDS011;28667;50.758;6.096;2022-08-02T09:08:06;1.50;;;1.10;;
43042;SDS011;28667;50.758;6.096;2022-08-02T09:10:37;1.02;;;1.00;;
43042;SDS011;28667;50.758;6.096;2022-08-02T09:13:07;1.80;;;1.00;;
43042;SDS011;28667;50.758;6.096;2022-08-02T09:15:37;1.23;;;1.13;;
43042;SDS011;28667;50.758;6.096;2022-08-02T09:18:05;1.23;;;1.13;;
43042;SDS011;28667;50.758;6.096;2022-08-02T09:20:32;1.52;;;1.42;;
43042;SDS011;28667;50.758;6.096;2022-08-02T09:23:06;1.27;;;1.17;;
43042;SDS011;28667;50.758;6.096;2022-08-02T09:25:36;1.23;;;1.13;;
43042;SDS011;28667;50.758;6.096;2022-08-02T09:28:03;2.28;;;1.10;;
43042;SDS011;28667;50.758;6.096;2022-08-02T09:30:30;1.80;;;0.80;;
43042;SDS011;28667;50.758;6.096;2022-08-02T09:32:57;1.67;;;1.58;;
43042;SDS011;28667;50.758;6.096;2022-08-02T09:35:37;2.25;;;1.08;;
43042;SDS011;28667;50.758;6.096;2022-08-02T09:38:10;1.15;;;0.90;;
43042;SDS011;28667;50.758;6.096;2022-08-02T09:40:39;1.55;;;1.02;;
43042;SDS011;28667;50.758;6.096;2022-08-02T09:43:07;1.17;;;1.00;;
43042;SDS011;28667;50.758;6.096;2022-08-02T09:45:34;2.38;;;1.17;;
43042;SDS011;28667;50.758;6.096;2022-08-02T09:48:01;0.98;;;0.88;;
43042;SDS011;28667;50.758;6.096;2022-08-02T09:50:32;1.10;;;0.95;;
43042;SDS011;28667;50.758;6.096;2022-08-02T09:53:05;0.93;;;0.80;;
43042;SDS011;28667;50.758;6.096;2022-08-02T09:58:15;0.77;;;0.77;;
43042;SDS011;28667;50.758;6.096;2022-08-02T10:00:51;2.17;;;1.13;;
43042;SDS011;28667;50.758;6.096;2022-08-02T10:03:20;1.27;;;0.80;;
43042;SDS011;28667;50.758;6.096;2022-08-02T10:05:51;7.05;;;1.17;;
43042;SDS011;28667;50.758;6.096;2022-08-02T10:08:20;1.55;;;1.42;;
43042;SDS011;28667;50.758;6.096;2022-08-02T10:10:46;1.30;;;1.20;;
43042;SDS011;28667;50.758;6.096;2022-08-02T10:13:12;1.10;;;0.80;;
43042;SDS011;28667;50.758;6.096;2022-08-02T10:15:40;0.95;;;0.95;;
43042;SDS011;28667;50.758;6.096;2022-08-02T10:18:06;1.38;;;1.00;;
43042;SDS011;28667;50.758;6.096;2022-08-02T10:20:41;1.05;;;0.90;;
43042;SDS011;28667;50.758;6.096;2022-08-02T10:23:09;2.83;;;1.20;;
43042;SDS011;28667;50.758;6.096;2022-08-02T10:25:38;1.00;;;0.80;;
43042;SDS011;28667;50.758;6.096;2022-08-02T10:28:06;2.25;;;0.95;;
43042;SDS011;28667;50.758;6.096;2022-08-02T10:30:37;1.13;;;0.70;;
43042;SDS011;28667;50.758;6.096;2022-08-02T10:33:06;1.08;;;0.90;;
43042;SDS011;28667;50.758;6.096;2022-08-02T10:35:36;0.65;;;0.63;;
43042;SDS011;28667;50.758;6.096;2022-08-02T10:38:06;0.85;;;0.82;;
43042;SDS011;28667;50.758;6.096;2022-08-02T10:40:42;1.10;;;0.80;;
43042;SDS011;28667;50.758;6.096;2022-08-02T10:43:09;1.03;;;0.93;;
43042;SDS011;28667;50.758;6.096;2022-08-02T10:45:35;0.98;;;0.90;;
43042;SDS011;28667;50.758;6.096;2022-08-02T10:50:50;1.48;;;0.90;;
43042;SDS011;28667;50.758;6.096;2022-08-02T10:53:38;1.02;;;0.75;;
43042;SDS011;28667;50.758;6.096;2022-08-02T10:56:04;1.08;;;0.98;;
43042;SDS011;28667;50.758;6.096;2022-08-02T10:58:31;1.15;;;1.05;;
43042;SDS011;28667;50.758;6.096;2022-08-02T11:01:05;0.80;;;0.80;;
43042;SDS011;28667;50.758;6.096;2022-08-02T11:03:58;1.00;;;0.98;;
43042;SDS011;28667;50.758;6.096;2022-08-02T11:06:25;1.33;;;1.23;;
43042;SDS011;28667;50.758;6.096;2022-08-02T11:14:30;1.02;;;1.02;;
43042;SDS011;28667;50.758;6.096;2022-08-02T11:19:27;2.10;;;1.15;;
43042;SDS011;28667;50.758;6.096;2022-08-02T11:22:00;1.10;;;1.02;;
43042;SDS011;28667;50.758;6.096;2022-08-02T11:24:34;1.10;;;1.00;;
43042;SDS011;28667;50.758;6.096;2022-08-02T11:27:03;1.17;;;1.00;;
43042;SDS011;28667;50.758;6.096;2022-08-02T11:32:01;3.03;;;0.98;;
43042;SDS011;28667;50.758;6.096;2022-08-02T11:34:29;1.65;;;0.93;;
43042;SDS011;28667;50.758;6.096;2022-08-02T11:36:58;1.40;;;1.30;;
43042;SDS011;28667;50.758;6.096;2022-08-02T11:39:24;2.03;;;0.80;;
43042;SDS011;28667;50.758;6.096;2022-08-02T11:41:57;1.30;;;1.20;;
43042;SDS011;28667;50.758;6.096;2022-08-02T11:46:54;1.27;;;1.15;;
43042;SDS011;28667;50.758;6.096;2022-08-02T11:49:21;1.17;;;0.80;;
43042;SDS011;28667;50.758;6.096;2022-08-02T11:51:55;0.75;;;0.60;;
43042;SDS011;28667;50.758;6.096;2022-08-02T11:54:29;1.27;;;0.95;;
43042;SDS011;28667;50.758;6.096;2022-08-02T11:59:38;0.90;;;0.90;;
43042;SDS011;28667;50.758;6.096;2022-08-02T12:02:05;2.08;;;0.80;;
43042;SDS011;28667;50.758;6.096;2022-08-02T12:04:32;2.20;;;1.00;;
43042;SDS011;28667;50.758;6.096;2022-08-02T12:06:59;1.25;;;1.15;;
43042;SDS011;28667;50.758;6.096;2022-08-02T12:09:29;1.42;;;1.13;;
43042;SDS011;28667;50.758;6.096;2022-08-02T12:11:56;1.15;;;0.93;;
43042;SDS011;28667;50.758;6.096;2022-08-02T12:14:23;0.75;;;0.75;;
43042;SDS011;28667;50.758;6.096;2022-08-02T12:16:52;0.95;;;0.82;;
43042;SDS011;28667;50.758;6.096;2022-08-02T12:19:38;1.15;;;1.02;;
43042;SDS011;28667;50.758;6.096;2022-08-02T12:22:21;1.27;;;0.90;;
43042;SDS011;28667;50.758;6.096;2022-08-02T12:24:50;1.15;;;1.02;;
43042;SDS011;28667;50.758;6.096;2022-08-02T12:27:37;1.30;;;1.20;;
43042;SDS011;28667;50.758;6.096;2022-08-02T12:32:33;1.00;;;0.90;;
43042;SDS011;28667;50.758;6.096;2022-08-02T12:35:01;1.15;;;0.98;;
43042;SDS011;28667;50.758;6.096;2022-08-02T12:37:27;2.20;;;1.05;;
43042;SDS011;28667;50.758;6.096;2022-08-02T12:39:53;2.13;;;0.93;;
43042;SDS011;28667;50.758;6.096;2022-08-02T12:42:19;0.90;;;0.80;;
43042;SDS011;28667;50.758;6.096;2022-08-02T12:44:53;1.02;;;0.90;;
43042;SDS011;28667;50.758;6.096;2022-08-02T12:47:23;0.93;;;0.93;;
43042;SDS011;28667;50.758;6.096;2022-08-02T12:52:35;0.80;;;0.70;;
43042;SDS011;28667;50.758;6.096;2022-08-02T12:55:18;1.80;;;0.90;;
43042;SDS011;28667;50.758;6.096;2022-08-02T12:57:55;0.98;;;0.77;;
43042;SDS011;28667;50.758;6.096;2022-08-02T13:00:25;0.93;;;0.90;;
43042;SDS011;28667;50.758;6.096;2022-08-02T13:02:53;1.05;;;0.98;;
43042;SDS011;28667;50.758;6.096;2022-08-02T13:05:20;0.98;;;0.88;;
43042;SDS011;28667;50.758;6.096;2022-08-02T13:07:46;1.98;;;1.02;;
43042;SDS011;28667;50.758;6.096;2022-08-02T13:10:13;1.20;;;1.10;;
43042;SDS011;28667;50.758;6.096;2022-08-02T13:12:40;0.70;;;0.70;;
43042;SDS011;28667;50.758;6.096;2022-08-02T13:15:06;1.65;;;0.82;;
43042;SDS011;28667;50.758;6.096;2022-08-02T13:17:33;1.10;;;1.00;;
43042;SDS011;28667;50.758;6.096;2022-08-02T13:20:00;1.17;;;1.08;;
43042;SDS011;28667;50.758;6.096;2022-08-02T13:22:26;1.85;;;0.80;;
43042;SDS011;28667;50.758;6.096;2022-08-02T13:24:52;0.80;;;0.68;;
43042;SDS011;28667;50.758;6.096;2022-08-02T13:27:18;1.02;;;0.90;;
43042;SDS011;28667;50.758;6.096;2022-08-02T13:29:45;1.10;;;0.95;;
43042;SDS011;28667;50.758;6.096;2022-08-02T13:32:11;0.57;;;0.57;;
43042;SDS011;28667;50.758;6.096;2022-08-02T13:34:37;0.80;;;0.80;;
43042;SDS011;28667;50.758;6.096;2022-08-02T13:37:04;1.08;;;0.98;;
43042;SDS011;28667;50.758;6.096;2022-08-02T13:39:30;0.90;;;0.90;;
43042;SDS011;28667;50.758;6.096;2022-08-02T13:41:57;0.70;;;0.70;;
43042;SDS011;28667;50.758;6.096;2022-08-02T13:44:23;0.98;;;0.88;;
43042;SDS011;28667;50.758;6.096;2022-08-02T13:46:49;0.50;;;0.50;;
43042;SDS011;28667;50.758;6.096;2022-08-02T13:49:15;0.70;;;0.50;;
43042;SDS011;28667;50.758;6.096;2022-08-02T13:51:41;3.13;;;0.95;;
43042;SDS011;28667;50.758;6.096;2022-08-02T13:54:08;0.70;;;0.70;;
43042;SDS011;28667;50.758;6.096;2022-08-02T13:56:34;1.40;;;0.85;;
43042;SDS011;28667;50.758;6.096;2022-08-02T13:59:02;1.48;;;1.05;;
43042;SDS011;28667;50.758;6.096;2022-08-02T14:01:29;0.88;;;0.70;;
43042;SDS011;28667;50.758;6.096;2022-08-02T14:03:55;0.73;;;0.73;;
43042;SDS011;28667;50.758;6.096;2022-08-02T14:06:22;0.85;;;0.63;;
43042;SDS011;28667;50.758;6.096;2022-08-02T14:08:48;0.70;;;0.70;;
43042;SDS011;28667;50.758;6.096;2022-08-02T14:11:14;2.30;;;0.85;;
43042;SDS011;28667;50.758;6.096;2022-08-02T14:13:41;1.00;;;0.85;;
43042;SDS011;28667;50.758;6.096;2022-08-02T14:16:07;0.77;;;0.77;;
43042;SDS011;28667;50.758;6.096;2022-08-02T14:18:33;2.20;;;0.70;;
43042;SDS011;28667;50.758;6.096;2022-08-02T14:20:59;1.08;;;0.98;;
43042;SDS011;28667;50.758;6.096;2022-08-02T14:23:25;0.90;;;0.90;;
43042;SDS011;28667;50.758;6.096;2022-08-02T14:25:57;0.70;;;0.70;;
43042;SDS011;28667;50.758;6.096;2022-08-02T14:28:23;2.13;;;0.95;;
43042;SDS011;28667;50.758;6.096;2022-08-02T14:30:50;2.65;;;0.90;;
43042;SDS011;28667;50.758;6.096;2022-08-02T14:33:16;0.73;;;0.73;;
43042;SDS011;28667;50.758;6.096;2022-08-02T14:35:43;0.75;;;0.75;;
43042;SDS011;28667;50.758;6.096;2022-08-02T14:38:09;0.90;;;0.90;;
43042;SDS011;28667;50.758;6.096;2022-08-02T14:40:36;1.33;;;0.88;;
43042;SDS011;28667;50.758;6.096;2022-08-02T14:43:02;1.38;;;1.05;;
43042;SDS011;28667;50.758;6.096;2022-08-02T14:45:29;1.00;;;0.90;;
43042;SDS011;28667;50.758;6.096;2022-08-02T14:47:56;1.05;;;0.70;;
43042;SDS011;28667;50.758;6.096;2022-08-02T14:50:22;1.08;;;0.70;;
43042;SDS011;28667;50.758;6.096;2022-08-02T14:52:49;0.50;;;0.47;;
43042;SDS011;28667;50.758;6.096;2022-08-02T14:55:15;3.15;;;0.95;;
43042;SDS011;28667;50.758;6.096;2022-08-02T14:57:41;1.10;;;0.90;;
43042;SDS011;28667;50.758;6.096;2022-08-02T15:00:08;0.73;;;0.70;;
43042;SDS011;28667;50.758;6.096;2022-08-02T15:02:34;4.15;;;1.20;;
43042;SDS011;28667;50.758;6.096;2022-08-02T15:05:01;2.65;;;0.95;;
43042;SDS011;28667;50.758;6.096;2022-08-02T15:07:35;1.17;;;0.70;;
43042;SDS011;28667;50.758;6.096;2022-08-02T15:10:01;1.35;;;1.25;;
43042;SDS011;28667;50.758;6.096;2022-08-02T15:12:28;1.83;;;1.02;;
43042;SDS011;28667;50.758;6.096;2022-08-02T15:14:54;1.10;;;1.00;;
43042;SDS011;28667;50.758;6.096;2022-08-02T15:17:20;0.90;;;0.90;;
43042;SDS011;28667;50.758;6.096;2022-08-02T15:19:46;3.83;;;1.20;;
43042;SDS011;28667;50.758;6.096;2022-08-02T15:22:12;0.80;;;0.80;;
43042;SDS011;28667;50.758;6.096;2022-08-02T15:24:38;6.00;;;0.98;;
43042;SDS011;28667;50.758;6.096;2022-08-02T15:27:04;2.97;;;0.90;;
43042;SDS011;28667;50.758;6.096;2022-08-02T15:29:34;1.88;;;1.00;;
43042;SDS011;28667;50.758;6.096;2022-08-02T15:32:00;0.60;;;0.60;;
43042;SDS011;28667;50.758;6.096;2022-08-02T15:34:27;1.25;;;1.10;;
43042;SDS011;28667;50.758;6.096;2022-08-02T15:36:54;1.10;;;1.00;;
43042;SDS011;28667;50.758;6.096;2022-08-02T15:39:20;0.85;;;0.85;;
43042;SDS011;28667;50.758;6.096;2022-08-02T15:41:46;1.13;;;0.98;;
43042;SDS011;28667;50.758;6.096;2022-08-02T15:44:12;0.70;;;0.70;;
43042;SDS011;28667;50.758;6.096;2022-08-02T15:46:38;0.90;;;0.88;;
43042;SDS011;28667;50.758;6.096;2022-08-02T15:49:04;1.20;;;0.90;;
43042;SDS011;28667;50.758;6.096;2022-08-02T15:51:31;0.95;;;0.90;;
43042;SDS011;28667;50.758;6.096;2022-08-02T15:53:57;2.05;;;1.10;;